Time;durP1;ratioP1;P1;durP2;ratioP2;P2;SDS_P1;SDS_P2;PMS_P1;PMS_P2;Temp;Humidity;BMP_temperature;BMP_pressure;BME280_temperature;BME280_humidity;BME280_pressure;Samples;Min_cycle;Max_cycle;Signal;HPM_P1;HPM_P2
2022/10/25 00:00:47;;;;;;;8.82;2.78;;;10.10;99.90;;;;;;6311750;22;20298;-83
2022/10/25 00:03:34;;;;;;;3.58;2.72;;;10.00;99.90;;;;;;6288807;22;20034;-84
2022/10/25 00:06:21;;;;;;;7.88;2.85;;;10.00;99.90;;;;;;6308405;22;20098;-83
2022/10/25 00:09:09;;;;;;;7.20;3.17;;;10.00;99.90;;;;;;6308073;22;20019;-84
2022/10/25 00:11:56;;;;;;;8.25;3.08;;;9.90;99.90;;;;;;6285882;22;20023;-84
2022/10/25 00:14:46;;;;;;;4.60;2.72;;;9.90;99.90;;;;;;6286366;22;20027;-83
2022/10/25 00:17:33;;;;;;;7.07;2.80;;;9.90;99.90;;;;;;6308904;22;20054;-82
2022/10/25 00:20:20;;;;;;;6.25;2.80;;;9.90;99.90;;;;;;6309187;22;20027;-84
2022/10/25 00:23:07;;;;;;;5.32;3.03;;;9.80;99.90;;;;;;6306646;22;20101;-83
2022/10/25 00:26:06;;;;;;;9.95;3.28;;;9.90;99.90;;;;;;6307790;22;20019;-83
2022/10/25 00:28:55;;;;;;;6.82;3.05;;;9.90;99.90;;;;;;6307629;22;20027;-83
2022/10/25 00:31:44;;;;;;;7.88;3.05;;;9.90;99.90;;;;;;6308232;22;20326;-83
2022/10/25 00:34:31;;;;;;;7.10;3.08;;;9.90;99.90;;;;;;6286406;22;20497;-83
2022/10/25 00:37:20;;;;;;;8.55;2.90;;;10.00;99.90;;;;;;6309912;22;20054;-83
2022/10/25 00:40:09;;;;;;;8.68;2.92;;;10.00;99.90;;;;;;6286182;22;20047;-83
2022/10/25 00:42:56;;;;;;;6.15;3.15;;;9.90;99.90;;;;;;6307858;22;20331;-83
2022/10/25 00:45:44;;;;;;;8.85;2.92;;;9.90;99.90;;;;;;6285402;22;20023;-84
2022/10/25 00:48:31;;;;;;;7.15;2.85;;;9.90;99.90;;;;;;6306977;22;20099;-83
2022/10/25 00:51:23;;;;;;;13.35;3.58;;;10.00;99.90;;;;;;6307585;22;20078;-82
2022/10/25 00:54:19;;;;;;;9.00;3.30;;;9.90;99.90;;;;;;6307682;22;20098;-85
2022/10/25 00:57:23;;;;;;;11.43;3.10;;;9.90;99.90;;;;;;6308351;22;20019;-83
2022/10/25 01:00:12;;;;;;;10.65;3.20;;;9.90;99.90;;;;;;6306900;22;20102;-83
2022/10/25 01:02:59;;;;;;;7.97;3.70;;;9.80;99.90;;;;;;6309026;22;20090;-85
2022/10/25 01:05:47;;;;;;;10.93;3.88;;;9.80;99.90;;;;;;6306665;22;20104;-84
2022/10/25 01:08:35;;;;;;;5.68;3.33;;;9.80;99.90;;;;;;6307385;22;20102;-83
2022/10/25 01:11:23;;;;;;;8.13;3.70;;;9.80;99.90;;;;;;6306714;22;20125;-82
2022/10/25 01:14:14;;;;;;;9.20;3.58;;;9.70;99.90;;;;;;6307433;22;20106;-84
2022/10/25 01:17:17;;;;;;;7.50;3.38;;;9.70;99.90;;;;;;6307378;22;20098;-83
2022/10/25 01:20:16;;;;;;;5.15;3.40;;;9.70;99.90;;;;;;6308327;22;20027;-82
2022/10/25 01:23:25;;;;;;;8.55;4.10;;;9.70;99.90;;;;;;6287812;22;20422;-83
2022/10/25 01:26:43;;;;;;;10.27;3.85;;;9.60;99.90;;;;;;6308989;22;20106;-82
2022/10/25 01:29:45;;;;;;;5.20;3.80;;;9.60;99.90;;;;;;6307468;22;20092;-84
2022/10/25 01:32:58;;;;;;;7.10;4.68;;;9.70;99.90;;;;;;6285988;22;20106;-83
2022/10/25 01:36:07;;;;;;;6.03;4.10;;;9.60;99.90;;;;;;6309200;22;20028;-81
2022/10/25 01:39:02;;;;;;;18.05;4.75;;;9.60;99.90;;;;;;6284353;22;20042;-84
2022/10/25 01:42:08;;;;;;;7.15;4.13;;;9.70;99.90;;;;;;6285238;22;20119;-82
2022/10/25 01:45:09;;;;;;;7.75;4.35;;;9.70;99.90;;;;;;6309288;22;20023;-84
2022/10/25 01:48:18;;;;;;;10.10;4.43;;;9.70;99.90;;;;;;6310240;22;20015;-83
2022/10/25 01:51:11;;;;;;;8.55;4.47;;;9.60;99.90;;;;;;6288851;22;20075;-82
2022/10/25 01:54:00;;;;;;;10.23;4.65;;;9.70;99.90;;;;;;6285470;22;20027;-82
2022/10/25 01:57:16;;;;;;;7.68;4.95;;;9.60;99.90;;;;;;6307987;22;20094;-85
2022/10/25 02:00:17;;;;;;;5.80;4.68;;;9.70;99.90;;;;;;6284620;22;20037;-82
2022/10/25 02:03:07;;;;;;;12.15;4.72;;;9.60;99.90;;;;;;6305400;22;20019;-82
2022/10/25 02:06:26;;;;;;;10.65;4.28;;;9.70;99.90;;;;;;6307227;22;20052;-83
2022/10/25 02:09:26;;;;;;;13.55;5.03;;;9.70;99.90;;;;;;6308862;22;20051;-82
2022/10/25 02:12:20;;;;;;;7.85;4.25;;;9.60;99.90;;;;;;6263956;22;20365;-84
2022/10/25 02:15:23;;;;;;;12.25;4.55;;;9.60;99.90;;;;;;6306815;22;20099;-83
2022/10/25 02:18:19;;;;;;;11.55;5.22;;;9.60;99.90;;;;;;6304398;22;20033;-83
2022/10/25 02:21:09;;;;;;;10.50;4.15;;;9.60;99.90;;;;;;6308882;22;20034;-84
2022/10/25 02:23:58;;;;;;;7.85;4.65;;;9.60;99.90;;;;;;6305792;22;20030;-84
2022/10/25 02:26:48;;;;;;;12.82;5.30;;;9.60;99.90;;;;;;6308026;22;20019;-84
2022/10/25 02:29:41;;;;;;;6.72;3.92;;;9.60;99.90;;;;;;6287146;22;20019;-83
2022/10/25 02:32:30;;;;;;;9.45;4.03;;;9.60;99.90;;;;;;6306817;22;20027;-83
2022/10/25 02:35:20;;;;;;;8.13;4.57;;;9.50;99.90;;;;;;6307019;22;20080;-84
2022/10/25 02:38:08;;;;;;;9.40;4.68;;;9.40;99.90;;;;;;6308103;22;20059;-84
2022/10/25 02:40:56;;;;;;;7.15;4.43;;;9.40;99.90;;;;;;6285279;22;20020;-83
2022/10/25 02:47:44;;;;;;;10.32;4.85;;;9.30;99.90;;;;;;6308104;22;19995;-84
2022/10/25 02:50:32;;;;;;;12.80;5.22;;;9.40;99.90;;;;;;6312567;22;20019;-85
2022/10/25 02:53:19;;;;;;;8.60;4.68;;;9.40;99.90;;;;;;6290424;22;20034;-83
2022/10/25 02:56:14;;;;;;;13.57;5.43;;;9.40;99.90;;;;;;6309373;22;20023;-82
2022/10/25 02:59:01;;;;;;;11.80;5.28;;;9.40;99.90;;;;;;6308075;22;20019;-83
2022/10/25 03:01:49;;;;;;;13.52;5.45;;;9.50;99.90;;;;;;6308718;22;20024;-83
2022/10/25 03:04:36;;;;;;;13.43;5.82;;;9.60;99.90;;;;;;6308501;22;20019;-83
2022/10/25 03:07:23;;;;;;;11.35;5.15;;;9.70;99.90;;;;;;6288566;22;20023;-83
2022/10/25 03:10:10;;;;;;;12.38;5.70;;;9.70;99.90;;;;;;6309007;22;20394;-83
2022/10/25 03:12:57;;;;;;;12.88;5.63;;;9.70;99.90;;;;;;6308503;22;20338;-83
2022/10/25 03:15:44;;;;;;;8.77;4.95;;;9.70;99.90;;;;;;6309775;22;20050;-83
2022/10/25 03:18:34;;;;;;;10.60;5.47;;;9.60;99.90;;;;;;6310050;22;20050;-84
2022/10/25 03:21:21;;;;;;;12.98;4.72;;;9.50;99.90;;;;;;6309118;22;20023;-82
2022/10/25 03:24:08;;;;;;;10.95;4.97;;;9.50;99.90;;;;;;6286324;22;20019;-83
2022/10/25 03:26:55;;;;;;;10.45;4.68;;;9.50;99.90;;;;;;6287293;22;20351;-84
2022/10/25 03:29:43;;;;;;;16.38;4.68;;;9.60;99.90;;;;;;6308743;22;20399;-84
2022/10/25 03:32:30;;;;;;;17.25;8.10;;;9.50;99.90;;;;;;6309793;22;20069;-84
2022/10/25 03:35:17;;;;;;;10.02;5.63;;;9.40;99.90;;;;;;6308968;22;20037;-85
2022/10/25 03:38:04;;;;;;;15.55;5.60;;;9.40;99.90;;;;;;6285132;22;20045;-84
2022/10/25 03:40:54;;;;;;;13.93;5.82;;;9.20;99.90;;;;;;6308605;22;20098;-84
2022/10/25 03:43:41;;;;;;;11.45;5.03;;;9.20;99.90;;;;;;6307654;22;20046;-82
2022/10/25 03:46:29;;;;;;;12.95;5.50;;;9.30;99.90;;;;;;6308644;22;20015;-84
2022/10/25 03:49:16;;;;;;;14.23;6.53;;;9.30;99.90;;;;;;6308499;22;20339;-85
2022/10/25 03:52:06;;;;;;;13.52;5.55;;;9.40;99.90;;;;;;6308154;22;20027;-83
2022/10/25 03:54:53;;;;;;;20.67;6.03;;;9.50;99.90;;;;;;6307734;22;20407;-82
2022/10/25 03:57:42;;;;;;;10.95;5.88;;;9.60;99.90;;;;;;6308649;22;20023;-85
2022/10/25 04:00:29;;;;;;;11.20;5.03;;;9.60;99.90;;;;;;6307865;22;20019;-83
2022/10/25 04:03:17;;;;;;;13.10;5.50;;;9.50;99.90;;;;;;6307828;22;20077;-85
2022/10/25 04:06:04;;;;;;;11.73;5.50;;;9.50;99.90;;;;;;6288025;22;20438;-86
2022/10/25 04:08:51;;;;;;;6.15;4.93;;;9.50;99.90;;;;;;6309100;22;20090;-85
2022/10/25 04:11:38;;;;;;;12.35;5.75;;;9.40;99.90;;;;;;6308474;22;20031;-84
2022/10/25 04:14:26;;;;;;;11.70;5.32;;;9.40;99.90;;;;;;6307120;22;20422;-84
2022/10/25 04:17:16;;;;;;;11.73;5.65;;;9.50;99.90;;;;;;6308988;22;20180;-85
2022/10/25 04:20:03;;;;;;;11.52;5.60;;;9.50;99.90;;;;;;6285819;22;20030;-85
2022/10/25 04:22:55;;;;;;;11.43;5.13;;;9.40;99.90;;;;;;6308145;22;20034;-85
2022/10/25 04:25:42;;;;;;;16.52;5.47;;;9.40;99.90;;;;;;6285597;22;20153;-84
2022/10/25 04:28:30;;;;;;;12.95;5.85;;;9.40;99.90;;;;;;6309380;22;20023;-82
2022/10/25 04:31:18;;;;;;;10.73;5.60;;;9.50;99.90;;;;;;6308595;22;20023;-84
2022/10/25 04:34:07;;;;;;;16.23;6.03;;;9.50;99.90;;;;;;6309900;22;20031;-85
2022/10/25 04:36:59;;;;;;;10.75;6.05;;;9.50;99.90;;;;;;6287898;22;20047;-83
2022/10/25 04:39:46;;;;;;;15.00;5.82;;;9.40;99.90;;;;;;6287321;22;20024;-82
2022/10/25 04:42:34;;;;;;;15.10;6.07;;;9.40;99.90;;;;;;6308589;22;20025;-82
2022/10/25 04:45:23;;;;;;;10.25;5.55;;;9.50;99.90;;;;;;6308545;22;20395;-83
2022/10/25 04:48:12;;;;;;;9.65;5.97;;;9.50;99.90;;;;;;6285886;22;20023;-83
2022/10/25 04:51:02;;;;;;;14.75;5.93;;;9.50;99.90;;;;;;6308659;22;20515;-83
2022/10/25 04:53:52;;;;;;;15.40;6.25;;;9.50;99.90;;;;;;6306527;22;20038;-83
2022/10/25 04:56:41;;;;;;;13.70;6.15;;;9.50;99.90;;;;;;6308402;22;20037;-83
2022/10/25 04:59:31;;;;;;;16.27;5.70;;;9.50;99.90;;;;;;6308311;22;20055;-82
2022/10/25 05:02:21;;;;;;;12.30;5.72;;;9.50;99.90;;;;;;6307634;22;20024;-83
2022/10/25 05:05:08;;;;;;;11.90;5.75;;;9.40;99.90;;;;;;6285794;22;20094;-83
2022/10/25 05:07:57;;;;;;;15.05;6.65;;;9.40;99.90;;;;;;6307828;22;20099;-83
2022/10/25 05:10:53;;;;;;;11.70;6.10;;;9.40;99.90;;;;;;6307451;22;20019;-83
2022/10/25 05:13:42;;;;;;;9.93;5.78;;;9.40;99.90;;;;;;6308124;22;20045;-82
2022/10/25 05:16:34;;;;;;;14.73;5.80;;;9.30;99.90;;;;;;6307041;22;20027;-83
2022/10/25 05:19:21;;;;;;;13.02;6.18;;;9.30;99.90;;;;;;6286377;22;20051;-85
2022/10/25 05:22:10;;;;;;;7.90;5.10;;;9.30;99.90;;;;;;6306877;22;20031;-84
2022/10/25 05:24:57;;;;;;;13.45;6.00;;;9.30;99.90;;;;;;6307302;22;20023;-83
2022/10/25 05:27:47;;;;;;;17.20;5.82;;;9.30;99.90;;;;;;6306497;22;20023;-84
2022/10/25 05:30:34;;;;;;;9.40;5.43;;;9.30;99.90;;;;;;6281385;22;20326;-85
2022/10/25 05:33:22;;;;;;;10.73;5.38;;;9.30;99.90;;;;;;6313310;22;20492;-89
2022/10/25 05:36:11;;;;;;;10.77;5.00;;;9.30;99.90;;;;;;6286564;22;20027;-85
2022/10/25 05:39:00;;;;;;;15.02;5.88;;;9.30;99.90;;;;;;6287395;22;20106;-87
2022/10/25 05:41:48;;;;;;;14.25;5.38;;;9.30;99.90;;;;;;6288640;22;20069;-86
2022/10/25 05:44:37;;;;;;;13.57;5.10;;;9.30;99.90;;;;;;6310696;22;20322;-84
2022/10/25 05:47:24;;;;;;;9.40;5.50;;;9.30;99.90;;;;;;6312163;22;20482;-85
2022/10/25 05:50:11;;;;;;;17.35;5.70;;;9.20;99.90;;;;;;6289091;22;20015;-85
2022/10/25 05:52:58;;;;;;;14.98;5.50;;;9.20;99.90;;;;;;6312604;22;20054;-83
2022/10/25 05:55:46;;;;;;;12.02;5.97;;;9.10;99.90;;;;;;6310219;22;20379;-83
2022/10/25 05:58:38;;;;;;;10.40;6.25;;;9.20;99.90;;;;;;6311879;22;20094;-86
2022/10/25 06:01:29;;;;;;;13.43;5.87;;;9.20;99.90;;;;;;6312053;22;20131;-85
2022/10/25 06:04:19;;;;;;;8.63;5.30;;;9.10;99.90;;;;;;6288604;22;20049;-85
2022/10/25 06:07:07;;;;;;;10.30;5.18;;;9.10;99.90;;;;;;6307277;22;20316;-84
2022/10/25 06:09:56;;;;;;;10.32;5.65;;;9.10;99.90;;;;;;6313974;22;20027;-86
2022/10/25 06:12:46;;;;;;;8.82;5.30;;;9.10;99.90;;;;;;6292238;22;20057;-86
2022/10/25 06:15:37;;;;;;;11.95;5.72;;;9.20;99.90;;;;;;6290797;22;20027;-86
2022/10/25 06:18:24;;;;;;;8.73;5.28;;;9.30;99.90;;;;;;6287171;22;20088;-84
2022/10/25 06:21:17;;;;;;;13.82;5.40;;;9.30;99.90;;;;;;6264851;22;20140;-84
2022/10/25 06:24:05;;;;;;;16.80;5.65;;;9.30;99.90;;;;;;6286698;22;20082;-85
2022/10/25 06:26:52;;;;;;;10.95;5.32;;;9.30;99.90;;;;;;6287470;22;20023;-85
2022/10/25 06:29:39;;;;;;;11.30;4.97;;;9.30;99.90;;;;;;6285570;22;20094;-86
2022/10/25 06:32:27;;;;;;;9.63;4.35;;;9.40;99.90;;;;;;6308774;22;20034;-85
2022/10/25 06:35:14;;;;;;;8.48;5.22;;;9.40;99.90;;;;;;6307108;22;20112;-86
2022/10/25 06:38:01;;;;;;;13.70;5.47;;;9.40;99.90;;;;;;6285832;22;20027;-88
2022/10/25 06:40:51;;;;;;;11.35;4.68;;;9.40;99.90;;;;;;6307450;22;20107;-84
2022/10/25 06:43:39;;;;;;;8.18;4.32;;;9.50;99.90;;;;;;6284918;22;20085;-85
2022/10/25 06:46:28;;;;;;;12.00;4.70;;;9.50;99.90;;;;;;6284582;22;20073;-86
2022/10/25 06:49:18;;;;;;;9.57;4.65;;;9.50;99.90;;;;;;6307638;22;20055;-86
2022/10/25 06:52:06;;;;;;;6.10;4.05;;;9.60;99.90;;;;;;6307045;22;20077;-86
2022/10/25 06:54:53;;;;;;;12.25;5.80;;;9.70;99.90;;;;;;6306619;22;20023;-86
2022/10/25 06:57:40;;;;;;;11.73;5.13;;;9.70;99.90;;;;;;6287373;22;20031;-85
2022/10/25 07:00:29;;;;;;;10.55;5.28;;;9.80;99.90;;;;;;6306654;22;20069;-87
2022/10/25 07:03:16;;;;;;;7.22;4.70;;;9.90;99.90;;;;;;6285141;22;20023;-86
2022/10/25 07:06:10;;;;;;;9.80;5.32;;;10.00;99.90;;;;;;6306677;22;20100;-86
2022/10/25 07:08:59;;;;;;;10.77;4.65;;;10.20;99.90;;;;;;6283562;22;20028;-85
2022/10/25 07:11:46;;;;;;;14.02;4.68;;;10.40;99.90;;;;;;6285996;22;20023;-85
2022/10/25 07:14:34;;;;;;;13.05;4.15;;;10.50;99.90;;;;;;6286246;22;20030;-85
2022/10/25 07:17:21;;;;;;;10.65;4.05;;;10.50;99.90;;;;;;6305628;22;20106;-85
2022/10/25 07:20:09;;;;;;;7.70;3.17;;;10.50;99.90;;;;;;6285982;22;20054;-86
2022/10/25 07:22:56;;;;;;;7.30;3.03;;;10.70;99.90;;;;;;6286428;22;20066;-85
2022/10/25 07:25:47;;;;;;;7.25;2.83;;;10.90;99.90;;;;;;6308137;22;20019;-84
2022/10/25 07:28:35;;;;;;;9.23;2.67;;;11.10;40.70;;;;;;6306550;22;20019;-84
2022/10/25 07:31:30;;;;;;;2.85;1.92;;;11.10;99.90;;;;;;6307091;22;20051;-85
2022/10/25 07:34:23;;;;;;;6.47;2.67;;;11.00;99.90;;;;;;6306632;22;20037;-85
2022/10/25 07:37:10;;;;;;;7.93;3.33;;;11.00;99.90;;;;;;6308932;22;20100;-85
2022/10/25 07:39:59;;;;;;;10.68;2.22;;;11.10;99.90;;;;;;6310924;22;20178;-85
2022/10/25 07:42:50;;;;;;;6.15;2.15;;;11.30;99.90;;;;;;6310175;22;20055;-86
2022/10/25 07:45:40;;;;;;;4.53;2.40;;;11.30;99.90;;;;;;6310896;22;20029;-88
2022/10/25 07:48:27;;;;;;;7.32;2.60;;;11.30;1.00;;;;;;6289362;22;20019;-85
2022/10/25 07:51:19;;;;;;;10.00;3.17;;;11.30;99.90;;;;;;6289190;22;20102;-86
2022/10/25 07:54:06;;;;;;;6.05;2.15;;;11.30;1.00;;;;;;6310855;22;20050;-86
2022/10/25 07:56:53;;;;;;;5.47;1.92;;;11.50;99.90;;;;;;6286455;22;20368;-87
2022/10/25 07:59:40;;;;;;;8.07;2.60;;;11.60;99.90;;;;;;6310214;22;20055;-87
2022/10/25 08:02:28;;;;;;;5.80;2.05;;;11.70;1.00;;;;;;6265516;22;20023;-85
2022/10/25 08:05:15;;;;;;;8.48;1.88;;;12.00;99.90;;;;;;6287958;22;20358;-89
2022/10/25 08:08:04;;;;;;;3.90;1.65;;;12.20;99.90;;;;;;6286801;22;20023;-87
2022/10/25 08:10:51;;;;;;;5.28;1.98;;;12.40;41.70;;;;;;6308916;22;20030;-88
2022/10/25 08:13:39;;;;;;;7.28;2.38;;;12.60;1.00;;;;;;6286111;22;20042;-85
2022/10/25 08:16:26;;;;;;;3.22;1.30;;;13.30;99.90;;;;;;6284494;22;20406;-83
2022/10/25 08:19:16;;;;;;;4.50;1.48;;;13.80;4.40;;;;;;6306755;22;20104;-84
2022/10/25 08:22:06;;;;;;;7.28;1.40;;;14.10;99.90;;;;;;6286588;22;20073;-87
2022/10/25 08:24:53;;;;;;;3.78;1.38;;;14.40;99.90;;;;;;6285284;22;20027;-85
2022/10/25 08:27:43;;;;;;;3.80;1.25;;;14.20;99.90;;;;;;6286061;22;20417;-84
2022/10/25 08:30:30;;;;;;;3.80;1.65;;;13.90;99.90;;;;;;6286200;22;20031;-84
2022/10/25 08:33:17;;;;;;;9.15;2.15;;;13.90;98.30;;;;;;6284940;22;20158;-85
2022/10/25 08:36:06;;;;;;;4.28;1.58;;;14.00;99.90;;;;;;6284619;22;20046;-85
2022/10/25 08:38:54;;;;;;;6.38;1.38;;;14.10;83.50;;;;;;6284365;22;20027;-86
2022/10/25 08:41:52;;;;;;;7.18;1.77;;;14.30;91.90;;;;;;6306726;22;20105;-85
2022/10/25 08:45:22;;;;;;;5.90;1.38;;;14.60;70.30;;;;;;6283708;22;20027;-86
2022/10/25 08:48:17;;;;;;;8.55;2.25;;;14.80;1.00;;;;;;6285823;22;20027;-88
2022/10/25 08:51:16;;;;;;;5.85;1.42;;;14.80;1.00;;;;;;6284015;22;20034;-83
2022/10/25 08:54:21;;;;;;;7.20;1.20;;;15.20;1.00;;;;;;6285173;22;20024;-86
2022/10/25 08:57:28;;;;;;;3.90;1.10;;;15.70;1.00;;;;;;6289247;22;20019;-86
2022/10/25 09:00:24;;;;;;;6.60;1.15;;;15.90;1.00;;;;;;6309951;22;20027;-85
2022/10/25 09:03:27;;;;;;;3.92;1.30;;;16.40;1.00;;;;;;6287232;22;20243;-84
2022/10/25 09:07:03;;;;;;;4.72;1.30;;;16.50;99.90;;;;;;6288341;22;20023;-83
2022/10/25 09:10:08;;;;;;;5.68;1.65;;;16.10;99.90;;;;;;6245221;22;20425;-84
2022/10/25 09:13:10;;;;;;;4.85;1.52;;;16.00;99.90;;;;;;6288433;22;20049;-85
2022/10/25 09:16:17;;;;;;;2.13;1.10;;;15.90;99.90;;;;;;6285339;22;20319;-85
2022/10/25 09:19:27;;;;;;;2.85;1.35;;;15.90;99.90;;;;;;6287335;22;20027;-87
2022/10/25 09:22:26;;;;;;;7.28;1.88;;;15.90;99.90;;;;;;6307462;22;20038;-87
2022/10/25 09:25:21;;;;;;;5.07;1.13;;;16.10;99.90;;;;;;6288753;22;20102;-89
2022/10/25 09:28:34;;;;;;;4.45;1.23;;;16.50;99.90;;;;;;6286603;22;20023;-86
2022/10/25 09:31:24;;;;;;;5.07;1.50;;;16.90;99.90;;;;;;6285150;22;20027;-84
2022/10/25 09:34:16;;;;;;;6.38;1.52;;;17.30;99.90;;;;;;6264317;22;20042;-87
2022/10/25 09:37:16;;;;;;;6.00;1.42;;;17.20;99.90;;;;;;6285067;22;20115;-86
2022/10/25 09:40:26;;;;;;;6.60;1.45;;;17.50;99.90;;;;;;6291468;22;20023;-85
2022/10/25 09:43:43;;;;;;;5.50;1.48;;;17.90;99.90;;;;;;6286187;22;20371;-87
2022/10/25 09:46:33;;;;;;;3.40;1.63;;;18.20;99.90;;;;;;6311979;22;20061;-86
2022/10/25 09:49:28;;;;;;;5.22;1.50;;;18.30;99.90;;;;;;6292120;22;20046;-86
2022/10/25 09:52:27;;;;;;;3.53;1.23;;;18.50;99.90;;;;;;6290619;22;20420;-85
2022/10/25 09:55:39;;;;;;;2.30;1.35;;;18.70;99.90;;;;;;6289853;22;20110;-89
2022/10/25 09:58:46;;;;;;;3.58;1.08;;;18.40;99.90;;;;;;6292103;22;20058;-87
2022/10/25 10:01:37;;;;;;;4.85;1.40;;;18.20;99.90;;;;;;6308513;22;20449;-83
2022/10/25 10:04:46;;;;;;;1.60;0.88;;;18.40;99.90;;;;;;6285182;22;20376;-85
2022/10/25 10:07:36;;;;;;;3.17;1.17;;;18.40;99.90;;;;;;6285791;22;20026;-86
2022/10/25 10:10:42;;;;;;;5.00;1.27;;;18.30;99.90;;;;;;6287140;22;20415;-87
2022/10/25 10:13:46;;;;;;;6.15;1.40;;;18.00;99.90;;;;;;6287672;22;20027;-87
2022/10/25 10:16:53;;;;;;;4.23;1.30;;;18.00;99.90;;;;;;6306602;22;20027;-85
2022/10/25 10:19:43;;;;;;;4.13;1.20;;;18.10;99.90;;;;;;6309471;22;20023;-86
2022/10/25 10:22:32;;;;;;;5.13;1.17;;;18.40;99.90;;;;;;6309607;22;20023;-86
2022/10/25 10:25:25;;;;;;;4.72;1.20;;;18.10;99.90;;;;;;6307537;22;20015;-85
2022/10/25 10:28:14;;;;;;;6.75;1.40;;;18.60;99.90;;;;;;6288081;22;20034;-87
2022/10/25 10:31:06;;;;;;;4.55;1.17;;;19.00;99.90;;;;;;6307691;22;20027;-86
2022/10/25 10:33:55;;;;;;;2.15;0.82;;;19.30;99.90;;;;;;6309465;22;20027;-88
2022/10/25 10:36:48;;;;;;;3.30;0.98;;;19.00;99.90;;;;;;6306003;22;20165;-84
2022/10/25 10:39:57;;;;;;;3.72;1.00;;;19.30;99.90;;;;;;6284366;22;20027;-85
2022/10/25 10:42:56;;;;;;;6.10;1.15;;;19.30;99.90;;;;;;6305901;22;20045;-84
2022/10/25 10:50:37;;;;;;;3.42;1.13;;;20.40;99.90;;;;;;6306309;22;20003;-85
2022/10/25 10:58:04;;;;;;;4.28;1.10;;;20.50;99.90;;;;;;6185755;22;20024;-84
2022/10/25 11:00:55;;;;;;;3.33;1.10;;;21.00;99.90;;;;;;6282300;22;20046;-85
2022/10/25 11:03:42;;;;;;;1.88;0.75;;;20.50;99.90;;;;;;6286153;22;20019;-84
2022/10/25 11:06:50;;;;;;;4.78;1.13;;;20.90;99.90;;;;;;6288924;22;20023;-85
2022/10/25 11:09:42;;;;;;;6.35;1.13;;;21.00;99.90;;;;;;6308073;22;20055;-85
2022/10/25 11:12:31;;;;;;;3.42;0.75;;;21.40;99.90;;;;;;6286199;22;20023;-86
2022/10/25 11:15:28;;;;;;;6.53;1.00;;;21.80;99.90;;;;;;6288910;22;20115;-86
2022/10/25 11:18:18;;;;;;;5.28;1.13;;;21.30;99.90;;;;;;6287816;22;20023;-86
2022/10/25 11:29:30;;;;;;;5.60;1.20;;;21.60;99.90;;;;;;6308575;22;20003;-84
2022/10/25 11:32:48;;;;;;;4.10;1.13;;;21.90;99.90;;;;;;6307651;22;20310;-84
2022/10/25 11:36:05;;;;;;;7.32;1.42;;;22.00;99.90;;;;;;6308798;22;20054;-86
2022/10/25 11:39:06;;;;;;;2.85;0.93;;;22.50;99.90;;;;;;6308392;22;20034;-84
2022/10/25 11:42:37;;;;;;;2.92;1.30;;;22.30;99.90;;;;;;6287511;22;20318;-85
2022/10/25 11:45:39;;;;;;;2.47;0.90;;;22.70;99.90;;;;;;6288341;22;20020;-87
2022/10/25 11:48:29;;;;;;;4.70;1.30;;;22.00;95.50;;;;;;6307795;22;20054;-86
2022/10/25 11:51:29;;;;;;;2.35;0.98;;;21.80;96.70;;;;;;6288353;22;20100;-87
2022/10/25 11:54:43;;;;;;;5.10;0.80;;;21.90;96.50;;;;;;6307493;22;20027;-86
2022/10/25 11:57:53;;;;;;;2.67;1.17;;;22.70;96.00;;;;;;6286186;22;20088;-86
2022/10/25 12:01:29;;;;;;;2.50;0.93;;;23.20;93.50;;;;;;6307014;22;20363;-89
2022/10/25 12:05:17;;;;;;;5.47;0.90;;;22.60;79.40;;;;;;6244812;22;20024;-91
2022/10/25 12:08:43;;;;;;;5.93;1.30;;;23.00;83.10;;;;;;6130683;23;20029;-88
2022/10/25 12:11:36;;;;;;;2.13;0.82;;;22.80;76.10;;;;;;6069217;23;20439;-89
2022/10/25 12:14:42;;;;;;;3.53;1.90;;;23.50;72.30;;;;;;6309568;22;20027;-89
2022/10/25 12:17:32;;;;;;;3.63;0.85;;;23.90;57.00;;;;;;6286513;22;20050;-86
2022/10/25 12:20:27;;;;;;;4.35;1.13;;;23.60;54.30;;;;;;6310173;22;20023;-86
2022/10/25 12:23:20;;;;;;;2.90;0.90;;;23.60;59.10;;;;;;6284724;22;20149;-85
2022/10/25 12:26:18;;;;;;;5.25;0.90;;;23.20;52.40;;;;;;6309471;22;20031;-86
2022/10/25 12:29:15;;;;;;;3.85;0.98;;;22.60;50.30;;;;;;6307804;22;20100;-86
2022/10/25 12:32:10;;;;;;;1.17;0.70;;;23.10;50.70;;;;;;6284871;22;20038;-87
2022/10/25 12:35:01;;;;;;;4.63;1.33;;;23.90;43.20;;;;;;6289605;22;20024;-85
2022/10/25 12:37:53;;;;;;;4.43;1.02;;;24.10;42.20;;;;;;6309236;22;20027;-88
2022/10/25 12:40:50;;;;;;;6.60;1.13;;;23.20;34.70;;;;;;6289517;22;20023;-86
2022/10/25 12:43:47;;;;;;;3.78;0.70;;;22.50;40.90;;;;;;6308233;22;20102;-82
2022/10/25 12:46:53;;;;;;;2.55;1.00;;;23.90;37.50;;;;;;6286956;22;20101;-84
2022/10/25 12:49:56;;;;;;;2.80;0.82;;;24.80;36.00;;;;;;6306004;22;20027;-85
2022/10/25 12:53:00;;;;;;;3.15;0.80;;;25.90;29.60;;;;;;6306203;22;20030;-85
2022/10/25 12:56:12;;;;;;;2.97;1.00;;;25.30;20.60;;;;;;6287005;22;20033;-84
2022/10/25 12:59:36;;;;;;;3.75;0.82;;;25.20;14.50;;;;;;6308607;22;20076;-85
2022/10/25 13:02:48;;;;;;;3.75;0.80;;;25.50;14.80;;;;;;6307492;22;20031;-86
2022/10/25 13:06:07;;;;;;;2.50;0.90;;;24.90;10.80;;;;;;6290115;22;20134;-87
2022/10/25 13:09:11;;;;;;;1.60;0.70;;;24.70;9.10;;;;;;6284427;22;20026;-87
2022/10/25 13:12:20;;;;;;;4.03;0.93;;;23.80;3.60;;;;;;6308748;22;20027;-86
2022/10/25 13:15:17;;;;;;;2.83;1.00;;;23.60;5.90;;;;;;6286293;22;20410;-86
2022/10/25 13:18:23;;;;;;;3.28;0.93;;;24.30;5.20;;;;;;6284567;22;20031;-87
2022/10/25 13:21:16;;;;;;;2.05;0.65;;;24.30;3.30;;;;;;6306760;22;20026;-88
2022/10/25 13:24:04;;;;;;;5.72;0.90;;;22.60;2.10;;;;;;6306266;22;20051;-86
2022/10/25 13:27:19;;;;;;;3.65;0.70;;;21.60;1.00;;;;;;6305866;22;20019;-85
2022/10/25 13:30:11;;;;;;;3.33;1.00;;;21.90;4.80;;;;;;6306161;22;20130;-86
2022/10/25 13:33:18;;;;;;;2.27;0.67;;;21.60;7.50;;;;;;6286257;22;20103;-85
2022/10/25 13:36:05;;;;;;;4.43;0.90;;;20.50;10.10;;;;;;6289186;22;20034;-85
2022/10/25 13:39:04;;;;;;;3.15;0.95;;;19.60;13.00;;;;;;6305414;22;20081;-88
2022/10/25 13:41:53;;;;;;;1.77;0.65;;;20.30;23.70;;;;;;6287961;22;20024;-90
2022/10/25 13:45:04;;;;;;;3.05;1.05;;;22.40;10.10;;;;;;6306845;22;20023;-85
2022/10/25 13:47:53;;;;;;;5.28;1.02;;;23.60;6.60;;;;;;6306779;22;20425;-87
2022/10/25 13:50:48;;;;;;;4.25;1.00;;;23.60;2.90;;;;;;6308220;22;20402;-87
2022/10/25 13:53:38;;;;;;;2.20;0.80;;;23.60;2.60;;;;;;6288332;22;20098;-86
2022/10/25 13:56:29;;;;;;;2.08;0.80;;;23.90;1.00;;;;;;6283431;22;20411;-84
2022/10/25 13:59:59;;;;;;;2.33;0.85;;;25.10;1.00;;;;;;6289691;22;20023;-85
2022/10/25 14:03:09;;;;;;;2.00;0.70;;;24.80;1.00;;;;;;6285730;22;20027;-85
2022/10/25 14:05:56;;;;;;;3.40;0.90;;;24.60;1.00;;;;;;6310388;22;20030;-86
2022/10/25 14:09:10;;;;;;;3.67;0.70;;;24.10;1.00;;;;;;6308550;22;20023;-86
2022/10/25 14:12:00;;;;;;;5.55;0.93;;;23.50;1.00;;;;;;6306571;22;20082;-85
2022/10/25 14:15:08;;;;;;;2.08;0.80;;;23.70;1.00;;;;;;6286840;22;20049;-87
2022/10/25 14:17:57;;;;;;;3.25;0.70;;;23.70;1.00;;;;;;6307750;22;20027;-84
2022/10/25 14:20:50;;;;;;;2.00;0.60;;;24.30;1.00;;;;;;6309200;22;20084;-85
2022/10/25 14:23:41;;;;;;;5.47;1.08;;;24.50;1.00;;;;;;6303990;22;20041;-83
2022/10/25 14:26:28;;;;;;;2.58;0.70;;;24.60;1.00;;;;;;6307810;22;20402;-85
2022/10/25 14:29:20;;;;;;;2.35;0.70;;;24.70;1.00;;;;;;6304813;22;20038;-84
2022/10/25 14:32:13;;;;;;;3.72;0.70;;;24.40;1.00;;;;;;6305508;22;20063;-87
2022/10/25 14:35:01;;;;;;;1.67;0.70;;;24.30;1.00;;;;;;6306226;22;20034;-86
2022/10/25 14:37:51;;;;;;;1.75;0.70;;;23.80;1.00;;;;;;6306065;22;20468;-85
2022/10/25 14:40:41;;;;;;;2.67;0.60;;;23.20;1.00;;;;;;6304298;22;20720;-85
2022/10/25 14:43:37;;;;;;;4.10;0.93;;;22.60;1.00;;;;;;6283757;22;20024;-86
2022/10/25 14:46:30;;;;;;;4.47;1.02;;;21.90;1.00;;;;;;6308383;22;20406;-85
2022/10/25 14:49:24;;;;;;;2.58;0.85;;;21.90;1.00;;;;;;6310690;22;20115;-84
2022/10/25 14:52:28;;;;;;;1.55;0.70;;;21.70;1.00;;;;;;6308255;22;20081;-85
2022/10/25 14:55:36;;;;;;;5.57;0.90;;;21.50;1.00;;;;;;6309567;22;20031;-85
2022/10/25 14:58:26;;;;;;;4.60;0.70;;;21.10;1.00;;;;;;6306974;22;20053;-85
2022/10/25 15:01:18;;;;;;;2.33;1.00;;;21.40;1.00;;;;;;6309431;22;20394;-85
2022/10/25 15:04:06;;;;;;;4.63;0.90;;;21.70;1.00;;;;;;6309515;22;20267;-87
2022/10/25 15:06:53;;;;;;;7.55;1.10;;;21.80;1.00;;;;;;6306796;22;20034;-86
2022/10/25 15:09:51;;;;;;;4.38;0.80;;;21.70;1.00;;;;;;6265055;22;20192;-86
2022/10/25 15:12:49;;;;;;;4.55;1.02;;;21.40;1.00;;;;;;6308646;22;20019;-86
2022/10/25 15:15:43;;;;;;;4.28;0.85;;;21.60;1.00;;;;;;6308462;22;20027;-86
2022/10/25 15:18:33;;;;;;;1.88;0.80;;;21.60;1.00;;;;;;6309546;22;20676;-85
2022/10/25 15:21:20;;;;;;;7.40;1.25;;;21.10;1.00;;;;;;6308694;22;20122;-84
2022/10/25 15:24:12;;;;;;;2.60;0.90;;;20.40;1.00;;;;;;6309777;22;20050;-85
2022/10/25 15:27:04;;;;;;;2.05;0.88;;;19.70;1.00;;;;;;6312355;22;20047;-83
2022/10/25 15:29:54;;;;;;;4.25;0.90;;;19.10;1.00;;;;;;6290775;22;20034;-86
2022/10/25 15:32:41;;;;;;;6.18;0.70;;;18.80;1.00;;;;;;6312470;22;20047;-86